createdAt,value
2016-07-05T00:00:08.881Z,0
2016-07-05T00:01:08.938Z,0
2016-07-05T00:02:09.026Z,0
2016-07-05T00:03:10.280Z,0
2016-07-05T00:04:09.145Z,0
2016-07-05T00:05:09.194Z,0
2016-07-05T00:06:09.278Z,0
2016-07-05T00:07:09.323Z,0
2016-07-05T00:08:09.401Z,0
2016-07-05T00:09:09.462Z,0
2016-07-05T00:10:09.530Z,0
2016-07-05T00:11:09.584Z,0
2016-07-05T00:12:09.632Z,0
2016-07-05T00:13:09.695Z,0
2016-07-05T00:14:09.752Z,0
2016-07-05T00:15:09.822Z,0
2016-07-05T00:16:09.907Z,0
2016-07-05T00:17:09.960Z,0
2016-07-05T00:18:10.034Z,0
2016-07-05T00:19:10.091Z,0
2016-07-05T00:20:10.147Z,0
2016-07-05T00:21:10.206Z,0
2016-07-05T00:22:10.279Z,0
2016-07-05T00:23:10.351Z,0
2016-07-05T00:24:10.414Z,0
2016-07-05T00:25:10.463Z,0
2016-07-05T00:26:10.514Z,0
2016-07-05T00:27:10.566Z,0
2016-07-05T00:28:10.638Z,0
2016-07-05T00:29:10.704Z,0
2016-07-05T00:30:10.773Z,0
2016-07-05T00:31:10.834Z,0
2016-07-05T00:32:10.889Z,0
2016-07-05T00:33:10.971Z,0
2016-07-05T00:34:11.843Z,0
2016-07-05T00:35:11.110Z,0
2016-07-05T00:36:11.166Z,0
2016-07-05T00:37:11.235Z,0
2016-07-05T00:38:11.295Z,0
2016-07-05T00:39:11.369Z,0
2016-07-05T00:40:11.430Z,0
2016-07-05T00:41:11.482Z,0
2016-07-05T00:42:11.569Z,0
2016-07-05T00:43:11.587Z,0
2016-07-05T00:44:11.667Z,0
2016-07-05T00:45:12.324Z,0
2016-07-05T00:46:11.791Z,0
2016-07-05T00:47:11.867Z,0
2016-07-05T00:48:11.977Z,0
2016-07-05T00:49:11.999Z,0
2016-07-05T00:50:12.038Z,0
2016-07-05T00:51:12.137Z,0
2016-07-05T00:52:12.191Z,0
2016-07-05T00:53:12.227Z,0
2016-07-05T00:54:12.301Z,0
2016-07-05T00:55:12.361Z,0
2016-07-05T00:56:12.428Z,0
2016-07-05T00:57:12.498Z,0
2016-07-05T00:58:12.580Z,0
2016-07-05T00:59:12.605Z,0
2016-07-05T01:00:12.672Z,0
2016-07-05T01:01:12.745Z,0
2016-07-05T01:02:12.791Z,0
2016-07-05T01:03:12.852Z,0
2016-07-05T01:04:12.923Z,0
2016-07-05T01:05:12.991Z,0
2016-07-05T01:06:13.042Z,0
2016-07-05T01:07:13.105Z,0
2016-07-05T01:08:13.171Z,0
2016-07-05T01:09:13.219Z,0
2016-07-05T01:10:13.310Z,0
2016-07-05T01:11:13.380Z,0
2016-07-05T01:12:13.428Z,0
2016-07-05T01:13:13.522Z,0
2016-07-05T01:14:13.545Z,0
2016-07-05T01:15:13.606Z,0
2016-07-05T01:16:13.682Z,0
2016-07-05T01:17:13.752Z,0
2016-07-05T01:18:13.804Z,0
2016-07-05T01:19:13.880Z,0
2016-07-05T01:20:13.928Z,0
2016-07-05T01:21:13.995Z,0
2016-07-05T01:22:14.074Z,0
2016-07-05T01:23:14.130Z,0
2016-07-05T01:24:14.244Z,0
2016-07-05T01:25:14.263Z,0
2016-07-05T01:26:14.330Z,0
2016-07-05T01:27:14.392Z,0
2016-07-05T01:28:14.448Z,0
2016-07-05T01:29:14.541Z,0
2016-07-05T01:30:14.567Z,0
2016-07-05T01:31:14.617Z,0
2016-07-05T01:32:14.689Z,0
2016-07-05T01:33:14.742Z,0
2016-07-05T01:34:14.802Z,0
2016-07-05T01:35:14.871Z,0
2016-07-05T01:36:14.938Z,0
2016-07-05T01:37:14.998Z,0
2016-07-05T01:38:15.061Z,0
2016-07-05T01:39:15.130Z,0
2016-07-05T01:40:15.260Z,0
2016-07-05T01:41:15.259Z,0
2016-07-05T01:42:15.930Z,0
2016-07-05T01:43:15.381Z,0
2016-07-05T01:44:15.465Z,0
2016-07-05T01:45:15.562Z,0
2016-07-05T01:46:15.581Z,0
2016-07-05T01:47:15.646Z,0
2016-07-05T01:48:15.695Z,0
2016-07-05T01:49:15.769Z,0
2016-07-05T01:50:15.848Z,0
2016-07-05T01:51:15.888Z,0
2016-07-05T01:52:15.952Z,0
2016-07-05T01:53:16.024Z,0
2016-07-05T01:54:16.078Z,0
2016-07-05T01:55:16.160Z,0
2016-07-05T01:56:16.207Z,0
2016-07-05T01:57:16.256Z,0
2016-07-05T01:58:16.946Z,0
2016-07-05T01:59:16.382Z,0
2016-07-05T02:00:16.627Z,0
2016-07-05T02:01:16.966Z,0
2016-07-05T02:02:17.049Z,0
2016-07-05T02:03:17.005Z,0
2016-07-05T02:04:16.883Z,0
2016-07-05T02:05:17.305Z,0
2016-07-05T02:06:17.058Z,0
2016-07-05T02:07:17.214Z,0
2016-07-05T02:08:17.161Z,0
2016-07-05T02:09:17.836Z,0
2016-07-05T02:10:17.087Z,0
2016-07-05T02:11:17.228Z,0
2016-07-05T02:12:17.216Z,0
2016-07-05T02:13:17.272Z,0
2016-07-05T02:14:17.363Z,0
2016-07-05T02:15:17.403Z,0
2016-07-05T02:16:17.460Z,0
2016-07-05T02:17:17.536Z,0
2016-07-05T02:18:17.607Z,0
2016-07-05T02:19:17.669Z,0
2016-07-05T02:20:17.732Z,0
2016-07-05T02:21:17.779Z,0
2016-07-05T02:22:17.869Z,0
2016-07-05T02:23:17.916Z,0
2016-07-05T02:24:17.970Z,0
2016-07-05T02:25:18.044Z,0
2016-07-05T02:26:18.714Z,0
2016-07-05T02:27:18.167Z,0
2016-07-05T02:28:18.219Z,0
2016-07-05T02:29:18.304Z,0
2016-07-05T02:30:18.353Z,0
2016-07-05T02:31:18.411Z,0
2016-07-05T02:32:18.479Z,0
2016-07-05T02:33:18.537Z,0
2016-07-05T02:34:18.593Z,0
2016-07-05T02:35:18.637Z,0
2016-07-05T02:36:18.729Z,0
2016-07-05T02:37:18.777Z,0
2016-07-05T02:38:18.834Z,0
2016-07-05T02:39:18.898Z,0
2016-07-05T02:40:18.965Z,0
2016-07-05T02:41:19.041Z,0
2016-07-05T02:42:19.094Z,0
2016-07-05T02:43:19.162Z,0
2016-07-05T02:44:19.248Z,0
2016-07-05T02:45:19.293Z,0
2016-07-05T02:46:19.939Z,0
2016-07-05T02:47:20.014Z,0
2016-07-05T02:48:19.466Z,0
2016-07-05T02:49:19.531Z,0
2016-07-05T02:50:19.597Z,0
2016-07-05T02:51:19.669Z,0
2016-07-05T02:52:19.736Z,0
2016-07-05T02:53:19.812Z,0
2016-07-05T02:54:19.866Z,0
2016-07-05T02:55:19.926Z,0
2016-07-05T02:56:20.008Z,0
2016-07-05T02:57:20.055Z,0
2016-07-05T02:58:20.093Z,0
2016-07-05T02:59:20.166Z,0
2016-07-05T03:00:20.213Z,0
2016-07-05T03:01:20.287Z,0
2016-07-05T03:02:20.358Z,0
2016-07-05T03:03:20.423Z,0
2016-07-05T03:04:20.479Z,0
2016-07-05T03:05:20.566Z,0
2016-07-05T03:06:20.626Z,0
2016-07-05T03:07:20.676Z,0
2016-07-05T03:08:20.726Z,0
2016-07-05T03:09:20.803Z,0
2016-07-05T03:10:20.849Z,0
2016-07-05T03:11:20.946Z,0
2016-07-05T03:12:20.991Z,0
2016-07-05T03:13:21.070Z,0
2016-07-05T03:14:21.141Z,0
2016-07-05T03:15:21.200Z,0
2016-07-05T03:16:21.862Z,0
2016-07-05T03:17:21.331Z,0
2016-07-05T03:18:21.373Z,0
2016-07-05T03:19:21.429Z,0
2016-07-05T03:20:21.506Z,4
2016-07-05T03:21:21.563Z,0
2016-07-05T03:22:21.633Z,0
2016-07-05T03:23:21.684Z,4
2016-07-05T03:24:21.757Z,4
2016-07-05T03:25:21.817Z,4
2016-07-05T03:26:21.881Z,4
2016-07-05T03:27:21.917Z,4
2016-07-05T03:28:22.007Z,4
2016-07-05T03:29:22.066Z,4
2016-07-05T03:30:22.128Z,4
2016-07-05T03:31:22.210Z,0
2016-07-05T03:32:22.276Z,4
2016-07-05T03:33:22.351Z,4
2016-07-05T03:34:22.398Z,4
2016-07-05T03:35:22.432Z,4
2016-07-05T03:36:22.498Z,4
2016-07-05T03:37:22.562Z,4
2016-07-05T03:38:22.631Z,8
2016-07-05T03:39:22.690Z,8
2016-07-05T03:40:22.750Z,8
2016-07-05T03:41:22.801Z,4
2016-07-05T03:42:22.867Z,8
2016-07-05T03:43:22.940Z,8
2016-07-05T03:44:23.005Z,8
2016-07-05T03:45:23.060Z,8
2016-07-05T03:46:23.123Z,8
2016-07-05T03:47:23.188Z,8
2016-07-05T03:48:23.256Z,8
2016-07-05T03:49:23.330Z,8
2016-07-05T03:50:23.386Z,12
2016-07-05T03:51:23.465Z,12
2016-07-05T03:52:23.504Z,12
2016-07-05T03:53:23.562Z,12
2016-07-05T03:54:23.649Z,16
2016-07-05T03:55:23.711Z,12
2016-07-05T03:56:23.763Z,16
2016-07-05T03:57:23.810Z,16
2016-07-05T03:58:23.897Z,16
2016-07-05T03:59:23.965Z,16
2016-07-05T04:00:24.025Z,20
2016-07-05T04:01:24.073Z,16
2016-07-05T04:02:24.151Z,20
2016-07-05T04:03:24.220Z,20
2016-07-05T04:04:25.495Z,20
2016-07-05T04:05:24.324Z,20
2016-07-05T04:06:24.389Z,24
2016-07-05T04:07:24.456Z,24
2016-07-05T04:08:24.519Z,24
2016-07-05T04:09:24.596Z,28
2016-07-05T04:10:24.658Z,28
2016-07-05T04:11:24.713Z,28
2016-07-05T04:12:24.773Z,28
2016-07-05T04:13:24.850Z,32
2016-07-05T04:14:24.918Z,28
2016-07-05T04:15:24.979Z,32
2016-07-05T04:16:25.024Z,36
2016-07-05T04:17:25.086Z,32
2016-07-05T04:18:25.145Z,36
2016-07-05T04:19:25.222Z,36
2016-07-05T04:20:25.277Z,36
2016-07-05T04:21:25.316Z,36
2016-07-05T04:22:25.404Z,40
2016-07-05T04:23:25.461Z,40
2016-07-05T04:24:25.511Z,40
2016-07-05T04:25:25.608Z,44
2016-07-05T04:26:25.669Z,40
2016-07-05T04:27:25.742Z,44
2016-07-05T04:28:25.794Z,44
2016-07-05T04:29:25.862Z,44
2016-07-05T04:30:25.934Z,44
2016-07-05T04:31:25.972Z,48
2016-07-05T04:32:26.023Z,48
2016-07-05T04:33:26.090Z,48
2016-07-05T04:34:26.166Z,48
2016-07-05T04:35:26.228Z,52
2016-07-05T04:36:26.268Z,52
2016-07-05T04:37:26.314Z,52
2016-07-05T04:38:26.409Z,56
2016-07-05T04:39:26.454Z,56
2016-07-05T04:40:26.514Z,56
2016-07-05T04:41:26.635Z,56
2016-07-05T04:42:26.649Z,56
2016-07-05T04:43:26.717Z,52
2016-07-05T04:44:26.788Z,52
2016-07-05T04:45:26.816Z,52
2016-07-05T04:46:26.885Z,52
2016-07-05T04:47:26.977Z,52
2016-07-05T04:48:27.046Z,56
2016-07-05T04:49:27.079Z,4
2016-07-05T04:50:27.149Z,4
2016-07-05T04:51:27.401Z,4
2016-07-05T04:52:27.272Z,4
2016-07-05T04:53:27.349Z,4
2016-07-05T04:54:27.426Z,4
2016-07-05T04:55:27.448Z,4
2016-07-05T04:56:27.566Z,4
2016-07-05T04:57:27.582Z,4
2016-07-05T04:58:27.652Z,0
2016-07-05T04:59:27.726Z,0
2016-07-05T05:00:27.795Z,0
2016-07-05T05:01:27.847Z,0
2016-07-05T05:02:27.992Z,0
2016-07-05T05:03:27.981Z,0
2016-07-05T05:04:28.057Z,0
2016-07-05T05:05:28.093Z,0
2016-07-05T05:06:28.169Z,4
2016-07-05T05:07:28.206Z,4
2016-07-05T05:08:28.297Z,4
2016-07-05T05:09:28.355Z,4
2016-07-05T05:10:28.412Z,0
2016-07-05T05:11:28.468Z,0
2016-07-05T05:12:28.543Z,0
2016-07-05T05:13:28.579Z,0
2016-07-05T05:14:28.664Z,0
2016-07-05T05:15:28.746Z,0
2016-07-05T05:16:28.811Z,0
2016-07-05T05:17:28.856Z,4
2016-07-05T05:18:28.924Z,4
2016-07-05T05:19:28.980Z,4
2016-07-05T05:20:29.060Z,4
2016-07-05T05:21:29.122Z,4
2016-07-05T05:22:29.788Z,4
2016-07-05T05:23:29.202Z,4
2016-07-05T05:24:29.308Z,4
2016-07-05T05:25:29.354Z,4
2016-07-05T05:26:29.433Z,0
2016-07-05T05:27:29.492Z,0
2016-07-05T05:28:29.557Z,0
2016-07-05T05:29:29.623Z,0
2016-07-05T05:30:29.672Z,0
2016-07-05T05:31:29.738Z,0
2016-07-05T05:32:29.801Z,4
2016-07-05T05:33:29.853Z,4
2016-07-05T05:34:29.925Z,4
2016-07-05T05:35:29.985Z,4
2016-07-05T05:36:30.057Z,4
2016-07-05T05:37:30.133Z,4
2016-07-05T05:38:30.178Z,4
2016-07-05T05:39:30.230Z,4
2016-07-05T05:40:30.280Z,4
2016-07-05T05:41:30.345Z,4
2016-07-05T05:42:30.420Z,4
2016-07-05T05:43:31.120Z,4
2016-07-05T05:44:30.587Z,4
2016-07-05T05:45:30.625Z,4
2016-07-05T05:46:30.684Z,4
2016-07-05T05:47:30.781Z,4
2016-07-05T05:48:30.798Z,4
2016-07-05T05:49:30.874Z,4
2016-07-05T05:50:30.984Z,4
2016-07-05T05:51:30.996Z,4
2016-07-05T05:52:31.063Z,4
2016-07-05T05:53:31.723Z,4
2016-07-05T05:54:31.177Z,4
2016-07-05T05:55:31.246Z,4
2016-07-05T05:56:31.307Z,4
2016-07-05T05:57:31.378Z,4
2016-07-05T05:58:31.409Z,4
2016-07-05T05:59:31.503Z,4
2016-07-05T06:00:31.572Z,8
2016-07-05T06:01:31.611Z,8
2016-07-05T06:02:31.697Z,8
2016-07-05T06:03:31.753Z,8
2016-07-05T06:04:31.817Z,8
2016-07-05T06:05:31.874Z,8
2016-07-05T06:06:32.563Z,8
2016-07-05T06:07:32.000Z,8
2016-07-05T06:08:33.878Z,8
2016-07-05T06:09:32.136Z,8
2016-07-05T06:10:32.204Z,180
2016-07-05T06:11:32.261Z,316
2016-07-05T06:12:32.296Z,356
2016-07-05T06:13:32.387Z,368
2016-07-05T06:14:32.432Z,376
2016-07-05T06:15:32.491Z,380
2016-07-05T06:16:32.601Z,380
2016-07-05T06:17:32.631Z,380
2016-07-05T06:18:33.287Z,384
2016-07-05T06:19:32.754Z,384
2016-07-05T06:20:32.818Z,384
2016-07-05T06:21:32.876Z,368
2016-07-05T06:22:33.131Z,388
2016-07-05T06:23:33.007Z,388
2016-07-05T06:24:33.070Z,388
2016-07-05T06:25:33.114Z,384
2016-07-05T06:26:33.181Z,384
2016-07-05T06:27:33.236Z,384
2016-07-05T06:28:33.925Z,380
2016-07-05T06:29:34.088Z,388
2016-07-05T06:30:33.435Z,392
2016-07-05T06:31:33.506Z,392
2016-07-05T06:32:33.576Z,400
2016-07-05T06:33:33.626Z,400
2016-07-05T06:34:33.696Z,396
2016-07-05T06:35:33.745Z,400
2016-07-05T06:36:33.826Z,392
2016-07-05T06:37:33.885Z,388
2016-07-05T06:38:33.930Z,388
2016-07-05T06:39:33.995Z,396
2016-07-05T06:40:34.068Z,400
2016-07-05T06:41:34.101Z,396
2016-07-05T06:42:34.176Z,368
2016-07-05T06:43:34.262Z,376
2016-07-05T06:44:34.302Z,400
2016-07-05T06:45:34.353Z,388
2016-07-05T06:46:34.450Z,396
2016-07-05T06:47:34.492Z,388
2016-07-05T06:48:34.555Z,388
2016-07-05T06:49:34.601Z,392
2016-07-05T06:50:34.675Z,392
2016-07-05T06:51:34.795Z,388
2016-07-05T06:52:34.789Z,392
2016-07-05T06:53:34.848Z,388
2016-07-05T06:54:34.927Z,392
2016-07-05T06:55:35.574Z,392
2016-07-05T06:56:35.048Z,392
2016-07-05T06:57:35.101Z,392
2016-07-05T06:58:35.179Z,392
2016-07-05T06:59:35.216Z,360
2016-07-05T07:00:35.315Z,372
2016-07-05T07:01:35.361Z,384
2016-07-05T07:02:35.414Z,380
2016-07-05T07:03:36.092Z,380
